createdAt,value
2022-09-07T00:00:51.219Z,21.87
2022-09-07T00:01:51.318Z,22.51
2022-09-07T00:02:51.442Z,21.22
2022-09-07T00:03:51.485Z,21.54
2022-09-07T00:04:51.572Z,21.22
2022-09-07T00:05:51.618Z,21.22
2022-09-07T00:06:51.711Z,20.90
2022-09-07T00:07:51.787Z,21.22
2022-09-07T00:08:51.858Z,21.87
2022-09-07T00:09:51.941Z,21.87
2022-09-07T00:10:51.996Z,21.87
2022-09-07T00:11:52.060Z,21.54
2022-09-07T00:12:52.147Z,21.22
2022-09-07T00:13:52.243Z,21.22
2022-09-07T00:14:52.354Z,20.90
2022-09-07T00:15:52.453Z,22.51
2022-09-07T00:16:52.477Z,21.87
2022-09-07T00:17:52.555Z,22.83
2022-09-07T00:18:52.728Z,21.22
2022-09-07T00:19:52.756Z,21.22
2022-09-07T00:20:52.785Z,20.90
2022-09-07T00:21:52.871Z,21.22
2022-09-07T00:22:52.961Z,21.54
2022-09-07T00:23:53.009Z,21.22
2022-09-07T00:24:53.114Z,21.22
2022-09-07T00:25:54.210Z,20.90
2022-09-07T00:26:53.262Z,22.19
2022-09-07T00:27:53.360Z,21.54
2022-09-07T00:28:53.458Z,20.90
2022-09-07T00:29:53.577Z,20.90
2022-09-07T00:30:53.554Z,21.22
2022-09-07T00:31:53.659Z,20.90
2022-09-07T00:32:53.713Z,21.22
2022-09-07T00:33:53.775Z,20.58
2022-09-07T00:34:53.884Z,21.87
2022-09-07T00:35:53.985Z,22.51
2022-09-07T00:36:54.005Z,21.22
2022-09-07T00:37:54.111Z,21.87
2022-09-07T00:38:54.201Z,20.90
2022-09-07T00:39:54.392Z,21.54
2022-09-07T00:40:54.331Z,20.90
2022-09-07T00:41:54.404Z,21.22
2022-09-07T00:42:54.527Z,19.61
2022-09-07T00:43:54.575Z,20.90
2022-09-07T00:44:54.729Z,21.22
2022-09-07T00:45:54.722Z,21.54
2022-09-07T00:46:54.943Z,20.25
2022-09-07T00:47:54.877Z,21.22
2022-09-07T00:48:54.944Z,21.87
2022-09-07T00:49:55.060Z,20.90
2022-09-07T00:50:55.115Z,20.90
2022-09-07T00:51:55.205Z,21.22
2022-09-07T00:52:55.270Z,20.90
2022-09-07T00:53:55.355Z,20.58
2022-09-07T00:54:55.444Z,21.87
2022-09-07T00:55:55.502Z,20.58
2022-09-07T00:56:55.581Z,20.58
2022-09-07T00:57:55.664Z,21.22
2022-09-07T00:58:55.763Z,20.25
2022-09-07T00:59:55.851Z,20.25
2022-09-07T01:00:55.945Z,21.22
2022-09-07T01:01:56.121Z,20.90
2022-09-07T01:02:56.270Z,21.54
2022-09-07T01:03:56.163Z,19.93
2022-09-07T01:04:56.277Z,20.25
2022-09-07T01:05:56.326Z,21.22
2022-09-07T01:06:56.427Z,20.90
2022-09-07T01:07:56.497Z,20.58
2022-09-07T01:08:56.583Z,20.90
2022-09-07T01:09:56.667Z,21.22
2022-09-07T01:10:56.741Z,22.19
2022-09-07T01:11:56.813Z,20.58
2022-09-07T01:12:56.920Z,20.58
2022-09-07T01:13:56.966Z,20.90
2022-09-07T01:14:57.071Z,20.58
2022-09-07T01:15:57.148Z,21.22
2022-09-07T01:16:57.213Z,21.22
2022-09-07T01:17:57.303Z,20.58
2022-09-07T01:18:57.381Z,20.90
2022-09-07T01:19:57.454Z,22.19
2022-09-07T01:20:57.550Z,21.54
2022-09-07T01:21:57.573Z,21.22
2022-09-07T01:22:57.668Z,20.58
2022-09-07T01:23:57.735Z,21.87
2022-09-07T01:24:57.838Z,20.90
2022-09-07T01:25:57.951Z,21.22
2022-09-07T01:26:57.961Z,20.58
2022-09-07T01:27:58.072Z,20.25
2022-09-07T01:28:58.127Z,21.22
2022-09-07T01:29:58.235Z,20.90
2022-09-07T01:30:58.347Z,20.90
2022-09-07T01:31:58.386Z,21.54
2022-09-07T01:32:58.468Z,21.22
2022-09-07T01:33:58.567Z,20.90
2022-09-07T01:34:58.668Z,20.58
2022-09-07T01:35:58.712Z,22.19
2022-09-07T01:36:58.801Z,20.25
2022-09-07T01:37:58.892Z,21.22
2022-09-07T01:38:58.983Z,22.51
2022-09-07T01:39:59.118Z,20.90
2022-09-07T01:40:59.146Z,21.87
2022-09-07T01:41:59.228Z,21.22
2022-09-07T01:42:59.311Z,21.22
2022-09-07T01:43:59.409Z,20.25
2022-09-07T01:44:59.513Z,21.87
2022-09-07T01:45:59.609Z,21.54
2022-09-07T01:46:59.689Z,21.22
2022-09-07T01:47:59.776Z,21.54
2022-09-07T01:48:59.864Z,20.25
2022-09-07T01:49:59.948Z,20.90
2022-09-07T01:51:00.031Z,22.19
2022-09-07T01:52:00.123Z,21.22
2022-09-07T01:53:00.185Z,21.54
2022-09-07T01:54:00.253Z,21.54
2022-09-07T01:55:00.337Z,21.22
2022-09-07T01:56:00.415Z,21.54
2022-09-07T01:57:00.462Z,21.22
2022-09-07T01:58:00.560Z,21.54
2022-09-07T01:59:00.680Z,21.22
2022-09-07T02:00:00.712Z,21.54
2022-09-07T02:01:00.839Z,21.87
2022-09-07T02:02:01.006Z,20.25
2022-09-07T02:03:01.051Z,22.51
2022-09-07T02:04:01.064Z,21.54
2022-09-07T02:05:01.119Z,21.22
2022-09-07T02:06:01.189Z,21.54
2022-09-07T02:07:01.257Z,21.54
2022-09-07T02:08:01.341Z,20.90
2022-09-07T02:09:01.486Z,20.90
2022-09-07T02:10:01.515Z,21.22
2022-09-07T02:11:01.568Z,20.90
2022-09-07T02:12:01.635Z,22.83
2022-09-07T02:13:01.724Z,21.22
2022-09-07T02:14:01.821Z,20.90
2022-09-07T02:15:01.885Z,21.22
2022-09-07T02:16:02.018Z,21.22
2022-09-07T02:17:02.056Z,22.19
2022-09-07T02:18:02.143Z,21.54
2022-09-07T02:19:02.248Z,23.48
2022-09-07T02:20:02.389Z,21.22
2022-09-07T02:21:02.394Z,21.87
2022-09-07T02:22:02.484Z,21.22
2022-09-07T02:23:02.593Z,21.87
2022-09-07T02:24:02.684Z,21.87
2022-09-07T02:25:02.754Z,21.54
2022-09-07T02:26:02.814Z,20.58
2022-09-07T02:27:02.919Z,21.22
2022-09-07T02:28:02.968Z,20.58
2022-09-07T02:29:03.132Z,21.22
2022-09-07T02:30:03.153Z,21.22
2022-09-07T02:31:03.260Z,20.90
2022-09-07T02:32:03.266Z,21.54
2022-09-07T02:33:03.365Z,21.54
2022-09-07T02:34:03.439Z,21.22
2022-09-07T02:35:03.518Z,22.19
2022-09-07T02:36:03.591Z,20.90
2022-09-07T02:37:03.668Z,21.87
2022-09-07T02:38:03.755Z,21.22
2022-09-07T02:39:03.890Z,22.51
2022-09-07T02:40:04.015Z,21.54
2022-09-07T02:41:04.041Z,22.19
2022-09-07T02:42:04.069Z,21.54
2022-09-07T02:43:04.167Z,21.54
2022-09-07T02:44:04.264Z,22.51
2022-09-07T02:45:04.319Z,22.83
2022-09-07T02:46:04.429Z,20.58
2022-09-07T02:47:04.466Z,19.93
2022-09-07T02:48:04.517Z,21.87
2022-09-07T02:49:04.628Z,20.90
2022-09-07T02:50:04.691Z,21.22
2022-09-07T02:51:04.762Z,21.54
2022-09-07T02:52:04.983Z,21.22
2022-09-07T02:53:04.922Z,19.61
2022-09-07T02:54:05.013Z,21.22
2022-09-07T02:55:05.065Z,21.54
2022-09-07T02:56:05.146Z,20.90
2022-09-07T02:57:05.251Z,20.90
2022-09-07T02:58:05.349Z,21.22
2022-09-07T02:59:05.434Z,21.22
2022-09-07T03:00:05.514Z,21.54
2022-09-07T03:01:05.656Z,20.25
2022-09-07T03:02:05.731Z,20.90
2022-09-07T03:03:05.748Z,20.90
2022-09-07T03:04:05.798Z,21.22
2022-09-07T03:05:05.883Z,21.22
2022-09-07T03:06:05.937Z,21.22
2022-09-07T03:07:06.046Z,21.87
2022-09-07T03:08:06.192Z,21.87
2022-09-07T03:09:06.223Z,20.58
2022-09-07T03:10:06.311Z,21.22
2022-09-07T03:11:06.370Z,21.87
2022-09-07T03:12:06.457Z,21.22
2022-09-07T03:13:06.538Z,22.51
2022-09-07T03:14:06.601Z,21.87
2022-09-07T03:15:06.680Z,21.54
2022-09-07T03:16:06.803Z,21.22
2022-09-07T03:17:06.864Z,21.54
2022-09-07T03:18:06.926Z,21.54
2022-09-07T03:19:06.994Z,21.22
2022-09-07T03:20:07.097Z,22.19
2022-09-07T03:21:07.110Z,22.19
2022-09-07T03:22:07.201Z,21.22
2022-09-07T03:23:07.307Z,21.87
2022-09-07T03:24:07.330Z,22.51
2022-09-07T03:25:07.428Z,20.90
2022-09-07T03:26:07.478Z,22.19
2022-09-07T03:27:07.608Z,21.22
2022-09-07T03:28:07.659Z,21.87
2022-09-07T03:29:07.762Z,21.22
2022-09-07T03:30:07.840Z,20.90
2022-09-07T03:31:07.942Z,21.22
2022-09-07T03:32:07.991Z,21.22
2022-09-07T03:33:08.102Z,21.87
2022-09-07T03:34:08.195Z,20.58
2022-09-07T03:35:08.273Z,21.22
2022-09-07T03:36:08.380Z,21.22
2022-09-07T03:37:08.487Z,22.19
2022-09-07T03:38:08.539Z,21.22
2022-09-07T03:39:08.616Z,21.22
2022-09-07T03:40:08.811Z,20.90
2022-09-07T03:41:08.779Z,21.22
2022-09-07T03:42:08.877Z,20.90
2022-09-07T03:43:08.952Z,21.22
2022-09-07T03:44:09.022Z,21.22
2022-09-07T03:45:09.116Z,21.87
2022-09-07T03:46:09.345Z,20.90
2022-09-07T03:47:09.253Z,21.54
2022-09-07T03:48:09.383Z,21.54
2022-09-07T03:49:09.438Z,21.87
2022-09-07T03:50:09.499Z,22.19
2022-09-07T03:51:09.561Z,22.19
2022-09-07T03:52:09.662Z,21.22
2022-09-07T03:53:09.744Z,20.90
2022-09-07T03:54:09.881Z,20.25
2022-09-07T03:55:09.899Z,21.22
2022-09-07T03:56:10.054Z,21.54
2022-09-07T03:57:10.209Z,20.90
2022-09-07T03:58:10.124Z,22.51
2022-09-07T03:59:10.222Z,22.51
2022-09-07T04:00:10.567Z,21.22
2022-09-07T04:01:10.510Z,22.19
2022-09-07T04:02:10.549Z,21.22
2022-09-07T04:03:10.580Z,20.90
2022-09-07T04:04:10.613Z,21.22
2022-09-07T04:05:10.680Z,22.19
2022-09-07T04:06:10.764Z,21.22
2022-09-07T04:07:10.835Z,22.51
2022-09-07T04:08:10.942Z,22.19
2022-09-07T04:09:10.984Z,21.54
2022-09-07T04:10:11.069Z,21.54
2022-09-07T04:11:11.181Z,21.54
2022-09-07T04:12:11.661Z,21.54
2022-09-07T04:13:11.285Z,21.54
2022-09-07T04:14:11.382Z,21.22
2022-09-07T04:15:11.544Z,22.19
2022-09-07T04:16:11.511Z,21.22
2022-09-07T04:17:11.854Z,19.93
2022-09-07T04:18:11.665Z,22.19
2022-09-07T04:19:11.744Z,22.51
2022-09-07T04:20:11.845Z,21.22
2022-09-07T04:21:11.911Z,21.54
2022-09-07T04:22:12.001Z,22.19
2022-09-07T04:23:12.050Z,21.22
2022-09-07T04:24:12.161Z,22.83
2022-09-07T04:25:12.233Z,21.22
2022-09-07T04:26:12.381Z,21.54
2022-09-07T04:27:12.397Z,22.19
2022-09-07T04:28:12.555Z,21.22
2022-09-07T04:29:12.556Z,21.22
2022-09-07T04:30:12.693Z,20.90
2022-09-07T04:31:12.774Z,21.22
2022-09-07T04:32:15.811Z,21.22
2022-09-07T04:33:12.850Z,20.90
2022-09-07T04:34:12.934Z,21.22
2022-09-07T04:35:13.012Z,22.19
2022-09-07T04:36:13.127Z,20.90
2022-09-07T04:37:13.222Z,21.22
2022-09-07T04:38:13.243Z,21.22
2022-09-07T04:39:13.313Z,20.90
2022-09-07T04:40:13.563Z,21.22
2022-09-07T04:41:13.465Z,20.90
2022-09-07T04:42:13.551Z,22.51
2022-09-07T04:43:13.688Z,21.87
2022-09-07T04:44:16.763Z,21.54
2022-09-07T04:45:13.790Z,20.58
2022-09-07T04:46:13.926Z,20.90
2022-09-07T04:47:13.967Z,20.58
2022-09-07T04:48:14.053Z,20.58
2022-09-07T04:49:14.139Z,22.19
2022-09-07T04:50:14.195Z,20.25
2022-09-07T04:51:14.279Z,21.22
2022-09-07T04:52:14.334Z,21.22
2022-09-07T04:53:14.453Z,20.25
2022-09-07T04:54:14.582Z,20.58
2022-09-07T04:55:14.582Z,19.61
2022-09-07T04:56:17.003Z,21.54
2022-09-07T04:57:14.782Z,20.58
2022-09-07T04:58:14.941Z,20.58
2022-09-07T04:59:14.908Z,20.58
2022-09-07T05:00:15.079Z,18.96
2022-09-07T05:01:15.181Z,21.87
2022-09-07T05:02:15.213Z,20.58
2022-09-07T05:03:15.233Z,19.61
2022-09-07T05:04:15.315Z,21.22
2022-09-07T05:05:15.381Z,19.93
2022-09-07T05:06:15.478Z,21.22
2022-09-07T05:07:15.533Z,20.58
2022-09-07T05:08:15.610Z,20.25
2022-09-07T05:09:15.688Z,20.25
2022-09-07T05:10:15.784Z,22.19
2022-09-07T05:11:15.898Z,20.25
2022-09-07T05:12:15.917Z,21.54
2022-09-07T05:13:16.007Z,20.90
2022-09-07T05:14:16.099Z,20.58
2022-09-07T05:15:16.201Z,21.54
2022-09-07T05:16:16.374Z,20.58
2022-09-07T05:17:16.346Z,19.61
2022-09-07T05:18:16.452Z,19.93
2022-09-07T05:19:16.537Z,21.54
2022-09-07T05:20:20.169Z,20.90
2022-09-07T05:21:16.703Z,20.25
2022-09-07T05:22:16.787Z,19.61
2022-09-07T05:23:16.893Z,19.93
2022-09-07T05:24:16.951Z,20.58
2022-09-07T05:25:17.087Z,20.58
2022-09-07T05:26:17.134Z,20.58
2022-09-07T05:27:17.244Z,20.58
2022-09-07T05:28:19.426Z,20.58
2022-09-07T05:31:18.286Z,20.90
2022-09-07T05:32:17.630Z,20.25
2022-09-07T05:33:17.718Z,21.54
2022-09-07T05:34:33.416Z,22.19
2022-09-07T05:35:17.882Z,21.22
2022-09-07T05:36:17.979Z,19.61
2022-09-07T05:37:18.061Z,20.90
2022-09-07T05:38:18.148Z,20.90
2022-09-07T05:39:18.239Z,21.87
2022-09-07T05:40:18.867Z,21.87
2022-09-07T05:41:18.862Z,20.58
2022-09-07T05:42:18.458Z,20.90
2022-09-07T05:43:18.567Z,20.58
2022-09-07T05:45:18.720Z,22.19
2022-09-07T05:46:18.839Z,20.58
2022-09-07T05:47:18.849Z,21.87
2022-09-07T05:48:18.951Z,21.22
2022-09-07T05:49:19.004Z,21.87
2022-09-07T05:50:19.097Z,19.93
2022-09-07T05:51:19.160Z,21.54
2022-09-07T05:52:19.255Z,21.54
2022-09-07T05:53:19.324Z,21.87
2022-09-07T05:54:19.415Z,20.58
2022-09-07T05:55:29.788Z,21.87
2022-09-07T05:56:19.553Z,21.54
2022-09-07T05:57:19.599Z,22.19
2022-09-07T05:58:19.680Z,21.87
2022-09-07T05:59:19.777Z,21.54
2022-09-07T06:00:19.863Z,22.19
2022-09-07T06:01:19.956Z,21.22
2022-09-07T06:02:20.104Z,21.54
2022-09-07T06:03:20.325Z,23.15
2022-09-07T06:04:20.239Z,20.90
2022-09-07T06:05:20.323Z,21.54
2022-09-07T06:06:20.371Z,21.87
2022-09-07T06:07:22.779Z,22.83
2022-09-07T06:08:20.526Z,21.87
2022-09-07T06:09:20.586Z,21.22
2022-09-07T06:11:20.747Z,22.83
2022-09-07T06:12:20.834Z,21.54
2022-09-07T06:13:20.900Z,22.19
2022-09-07T06:14:20.968Z,21.87
2022-09-07T06:15:21.051Z,22.51
2022-09-07T06:16:21.200Z,23.15
2022-09-07T06:17:21.232Z,21.87
2022-09-07T06:18:21.281Z,21.87
2022-09-07T06:19:21.361Z,23.48
2022-09-07T06:20:21.464Z,22.19
2022-09-07T06:21:21.517Z,24.12
2022-09-07T06:22:21.621Z,23.80
2022-09-07T06:23:21.722Z,22.19
2022-09-07T06:24:21.820Z,21.87
2022-09-07T06:25:21.871Z,21.87
2022-09-07T06:26:21.919Z,21.54
2022-09-07T06:27:21.973Z,22.19
2022-09-07T06:28:22.081Z,22.19
2022-09-07T06:29:22.149Z,21.87
2022-09-07T06:30:22.212Z,21.54
2022-09-07T06:31:22.904Z,22.51
2022-09-07T06:33:22.471Z,22.51
2022-09-07T06:34:22.587Z,22.19
2022-09-07T06:35:22.727Z,22.19
2022-09-07T06:36:22.669Z,22.19
2022-09-07T06:37:22.752Z,22.19
2022-09-07T06:38:22.834Z,22.19
2022-09-07T06:39:22.956Z,24.12
2022-09-07T06:40:23.005Z,23.48
2022-09-07T06:42:23.154Z,22.19
2022-09-07T06:43:23.207Z,23.15
2022-09-07T06:44:23.354Z,23.48
2022-09-07T06:45:23.417Z,24.77
2022-09-07T06:47:23.580Z,24.44
2022-09-07T06:48:23.687Z,24.77
2022-09-07T06:49:23.735Z,25.41
2022-09-07T06:50:23.816Z,25.09
2022-09-07T06:51:23.879Z,25.73
2022-09-07T06:52:24.224Z,24.44
2022-09-07T06:55:24.233Z,28.31
2022-09-07T06:56:24.306Z,26.70
2022-09-07T06:57:24.385Z,26.70
2022-09-07T06:58:24.461Z,27.67
2022-09-07T06:59:24.555Z,26.38
2022-09-07T07:00:24.717Z,27.67
2022-09-07T07:01:24.700Z,27.02
2022-09-07T07:02:24.766Z,27.34
2022-09-07T07:03:24.897Z,26.38
2022-09-07T07:04:25.087Z,26.38
2022-09-07T07:05:25.021Z,26.70
2022-09-07T07:06:25.100Z,26.05
2022-09-07T07:07:25.196Z,27.02
2022-09-07T07:08:25.242Z,27.02
2022-09-07T07:09:25.317Z,27.34
2022-09-07T07:10:25.455Z,27.67
2022-09-07T07:11:25.436Z,28.96
2022-09-07T07:13:01.324Z,30.24
2022-09-07T07:14:02.344Z,28.96
2022-09-07T07:15:02.434Z,29.28
2022-09-07T07:16:02.527Z,28.96
2022-09-07T07:17:02.581Z,30.57
2022-09-07T07:18:19.797Z,28.31
2022-09-07T07:19:03.615Z,30.57
2022-09-07T07:20:02.836Z,30.24
2022-09-07T07:21:02.953Z,30.57
2022-09-07T07:22:18.637Z,30.89
2022-09-07T07:23:03.082Z,30.89
2022-09-07T07:24:07.958Z,30.89
2022-09-07T07:25:03.289Z,31.21
2022-09-07T07:26:03.284Z,31.86
2022-09-07T07:27:03.382Z,31.53
2022-09-07T07:29:04.271Z,31.86
2022-09-07T07:30:03.654Z,32.82
2022-09-07T07:31:07.364Z,32.82
2022-09-07T07:32:03.773Z,32.18
2022-09-07T07:33:03.876Z,31.86
2022-09-07T07:34:04.024Z,31.21
2022-09-07T07:35:04.026Z,30.57
2022-09-07T07:36:04.140Z,31.21
2022-09-07T07:37:04.182Z,31.21
2022-09-07T07:39:04.563Z,28.63
2022-09-07T07:40:22.766Z,30.89
2022-09-07T07:42:06.005Z,26.38
2022-09-07T07:43:05.721Z,28.96
2022-09-07T07:44:04.712Z,28.31
2022-09-07T07:46:06.222Z,28.63
2022-09-07T07:47:05.027Z,28.63
2022-09-07T07:48:04.985Z,27.99
2022-09-07T07:49:05.079Z,27.67
2022-09-07T07:51:09.771Z,27.02
2022-09-07T07:54:05.521Z,27.67
2022-09-07T07:55:42.869Z,26.70
2022-09-07T07:56:05.685Z,25.73
2022-09-07T07:57:05.801Z,27.02
2022-09-07T07:58:05.804Z,26.70
2022-09-07T07:59:06.056Z,26.38
2022-09-07T08:00:05.949Z,26.38
2022-09-07T08:01:06.163Z,26.38
2022-09-07T08:02:06.355Z,26.05
2022-09-07T08:03:06.310Z,26.70
2022-09-07T08:04:06.306Z,26.38
2022-09-07T08:05:06.375Z,26.05
2022-09-07T08:06:06.383Z,26.38
2022-09-07T08:07:10.697Z,27.02
2022-09-07T08:08:06.575Z,26.05
2022-09-07T08:09:06.698Z,26.05
2022-09-07T08:10:06.711Z,25.73
2022-09-07T08:11:06.804Z,27.34
2022-09-07T08:12:06.863Z,25.09
2022-09-07T08:13:06.959Z,26.05
2022-09-07T08:14:07.008Z,25.41
2022-09-07T08:15:07.074Z,25.41
2022-09-07T08:16:07.178Z,25.09
2022-09-07T08:17:07.256Z,25.09
2022-09-07T08:18:07.357Z,24.77
2022-09-07T08:19:07.414Z,25.73
2022-09-07T08:20:07.523Z,26.38
2022-09-07T08:21:07.555Z,24.77
2022-09-07T08:22:07.624Z,24.44
2022-09-07T08:23:07.740Z,24.77
2022-09-07T08:24:07.797Z,24.77
2022-09-07T08:25:07.921Z,25.73
2022-09-07T08:26:07.975Z,24.44
2022-09-07T08:27:08.103Z,27.34
2022-09-07T08:28:08.153Z,25.09
2022-09-07T08:29:08.269Z,24.77
2022-09-07T08:30:08.268Z,24.44
2022-09-07T08:31:08.417Z,24.44
2022-09-07T08:32:08.420Z,25.41
2022-09-07T08:33:08.537Z,24.77
2022-09-07T08:34:08.586Z,24.44
2022-09-07T08:35:08.671Z,23.80
2022-09-07T08:36:08.804Z,24.44
2022-09-07T08:37:08.867Z,24.12
2022-09-07T08:38:08.902Z,24.44
2022-09-07T08:39:09.065Z,25.09
2022-09-07T08:40:09.137Z,24.77
2022-09-07T08:41:09.158Z,25.09
2022-09-07T08:42:09.248Z,24.12
2022-09-07T08:43:09.361Z,24.44
2022-09-07T08:44:09.486Z,25.41
2022-09-07T08:45:09.488Z,24.77
2022-09-07T08:46:09.589Z,24.44
2022-09-07T08:47:09.627Z,24.77
2022-09-07T08:48:09.696Z,24.77
2022-09-07T08:49:09.802Z,24.12
2022-09-07T08:50:09.861Z,24.77
2022-09-07T08:51:09.977Z,24.77
2022-09-07T08:52:10.021Z,25.09
2022-09-07T08:53:10.115Z,24.44
2022-09-07T08:54:10.210Z,24.77
2022-09-07T08:55:10.265Z,25.09
2022-09-07T08:56:10.356Z,23.48
2022-09-07T08:57:25.729Z,24.77
2022-09-07T08:58:26.677Z,24.44
2022-09-07T08:59:10.589Z,27.34
2022-09-07T09:00:10.684Z,25.09
2022-09-07T09:04:19.432Z,25.41
2022-09-07T09:05:19.023Z,26.70
2022-09-07T09:06:12.061Z,27.34
2022-09-07T09:07:11.311Z,28.31
2022-09-07T09:08:11.304Z,27.99
2022-09-07T09:09:11.384Z,28.63
2022-09-07T09:10:11.444Z,28.63
2022-09-07T09:11:11.545Z,28.31
2022-09-07T09:12:11.631Z,28.63
2022-09-07T09:13:11.706Z,28.63
2022-09-07T09:14:11.907Z,27.99
2022-09-07T09:15:11.944Z,27.99
2022-09-07T09:16:12.059Z,27.67
2022-09-07T09:17:12.050Z,27.02
2022-09-07T09:18:14.416Z,27.34
2022-09-07T09:19:12.195Z,27.67
2022-09-07T09:20:12.264Z,26.05
2022-09-07T09:21:12.346Z,27.02
2022-09-07T09:22:12.412Z,27.67
2022-09-07T09:23:12.528Z,27.34
2022-09-07T09:24:12.600Z,27.99
2022-09-07T09:25:12.651Z,29.92
2022-09-07T09:26:12.727Z,31.86
2022-09-07T09:27:12.831Z,28.96
2022-09-07T09:28:12.900Z,29.28
2022-09-07T09:29:13.000Z,29.28
2022-09-07T09:30:13.055Z,29.28
2022-09-07T09:31:13.173Z,29.60
2022-09-07T09:32:13.207Z,30.57
2022-09-07T09:33:13.309Z,30.57
2022-09-07T09:34:13.412Z,30.89
2022-09-07T09:35:13.455Z,30.57
2022-09-07T09:36:13.548Z,31.86
2022-09-07T09:37:13.617Z,30.89
2022-09-07T09:38:13.699Z,31.53
2022-09-07T09:39:13.823Z,30.57
2022-09-07T09:40:14.017Z,31.21
2022-09-07T09:41:13.950Z,30.57
2022-09-07T09:42:14.038Z,30.89
2022-09-07T09:43:14.131Z,31.86
2022-09-07T09:44:14.267Z,31.21
2022-09-07T09:45:14.297Z,32.82
2022-09-07T09:46:14.398Z,31.86
2022-09-07T09:47:30.622Z,32.82
2022-09-07T09:48:14.546Z,32.50
2022-09-07T09:49:14.665Z,32.50
2022-09-07T09:52:27.802Z,32.50
2022-09-07T09:52:39.086Z,32.50
2022-09-07T09:52:51.855Z,32.50
2022-09-07T09:53:43.787Z,32.50
2022-09-07T09:54:43.808Z,31.86
2022-09-07T09:55:43.869Z,31.53
2022-09-07T09:56:44.004Z,31.53
2022-09-07T09:59:04.757Z,32.18
2022-09-07T10:00:04.039Z,30.89
2022-09-07T10:04:01.317Z,31.21
2022-09-07T10:04:44.656Z,31.21
2022-09-07T10:05:44.703Z,30.89
2022-09-07T10:06:44.799Z,30.57
2022-09-07T10:07:44.852Z,31.21
2022-09-07T10:08:44.963Z,30.57
2022-09-07T10:09:44.998Z,31.86
2022-09-07T10:10:45.094Z,31.53
2022-09-07T10:12:45.278Z,31.21
2022-09-07T10:13:45.335Z,32.18
2022-09-07T10:14:45.425Z,30.57
2022-09-07T10:15:45.486Z,31.53
2022-09-07T10:16:45.524Z,30.89
2022-09-07T10:17:45.612Z,30.24
2022-09-07T10:18:45.681Z,31.21
2022-09-07T10:19:45.785Z,30.89
2022-09-07T10:20:45.882Z,31.21
2022-09-07T10:21:45.950Z,33.79
2022-09-07T10:22:50.904Z,32.50
2022-09-07T10:23:46.119Z,32.50
2022-09-07T10:24:46.201Z,32.50
2022-09-07T10:25:46.268Z,29.92
2022-09-07T10:26:46.361Z,31.21
2022-09-07T10:27:46.470Z,32.18
2022-09-07T10:29:46.621Z,32.50
2022-09-07T10:30:46.759Z,33.79
2022-09-07T10:31:46.788Z,34.11
2022-09-07T10:32:46.884Z,33.47
2022-09-07T10:34:25.625Z,34.43
2022-09-07T10:34:47.047Z,33.14
2022-09-07T10:35:47.640Z,33.79
2022-09-07T10:36:47.218Z,34.11
2022-09-07T10:37:47.299Z,34.76
2022-09-07T10:38:47.377Z,34.43
2022-09-07T10:39:47.487Z,35.40
2022-09-07T10:40:47.561Z,34.11
2022-09-07T10:41:47.622Z,35.72
2022-09-07T10:43:47.796Z,35.40
2022-09-07T10:44:47.908Z,36.37
2022-09-07T10:45:48.083Z,36.04
2022-09-07T10:47:03.494Z,37.33
2022-09-07T10:47:48.153Z,36.04
2022-09-07T10:48:48.196Z,34.76
2022-09-07T10:50:48.406Z,36.69
2022-09-07T10:51:48.469Z,36.37
2022-09-07T10:52:48.528Z,36.04
2022-09-07T10:54:29.962Z,35.08
2022-09-07T10:54:48.702Z,35.72
2022-09-07T10:55:48.782Z,35.40
2022-09-07T10:56:48.858Z,35.72
2022-09-07T10:57:49.429Z,36.04
2022-09-07T10:59:04.691Z,36.04
2022-09-07T11:00:49.156Z,35.72
2022-09-07T11:01:49.295Z,36.04
2022-09-07T11:03:49.425Z,36.37
2022-09-07T11:04:49.473Z,36.37
2022-09-07T11:05:49.557Z,36.69
2022-09-07T11:06:49.663Z,36.04
2022-09-07T11:07:49.737Z,36.69
2022-09-07T11:09:49.908Z,36.37
2022-09-07T11:10:49.980Z,37.66
2022-09-07T11:12:05.341Z,36.69
2022-09-07T11:12:50.153Z,36.69
2022-09-07T11:14:11.962Z,36.37
2022-09-07T11:14:50.306Z,37.01
2022-09-07T11:15:50.489Z,37.01
2022-09-07T11:16:51.174Z,37.01
2022-09-07T11:17:52.958Z,36.69
2022-09-07T11:18:50.901Z,37.98
2022-09-07T11:19:50.697Z,35.08
2022-09-07T11:20:50.789Z,38.30
2022-09-07T11:21:57.995Z,36.69
2022-09-07T11:22:50.966Z,36.37
2022-09-07T11:23:51.045Z,35.72
2022-09-07T11:25:52.094Z,36.04
2022-09-07T11:26:51.300Z,33.47
2022-09-07T11:27:51.352Z,34.76
2022-09-07T11:29:29.238Z,33.47
2022-09-07T11:29:51.531Z,35.40
2022-09-07T11:30:51.715Z,36.69
2022-09-07T11:31:51.696Z,35.08
2022-09-07T11:32:51.797Z,34.76
2022-09-07T11:34:52.361Z,35.72
2022-09-07T11:35:52.015Z,34.76
2022-09-07T11:36:52.085Z,34.76
2022-09-07T11:37:52.164Z,34.76
2022-09-07T11:38:52.261Z,34.43
2022-09-07T11:39:52.392Z,34.11
2022-09-07T11:40:52.392Z,34.43
2022-09-07T11:41:52.469Z,34.43
2022-09-07T11:42:52.551Z,34.11
2022-09-07T11:43:52.828Z,33.79
2022-09-07T11:44:52.837Z,34.76
2022-09-07T11:45:52.873Z,32.82
2022-09-07T11:46:52.915Z,33.47
2022-09-07T11:47:52.966Z,32.18
2022-09-07T11:48:53.088Z,32.50
2022-09-07T11:49:57.205Z,32.50
2022-09-07T11:50:53.243Z,32.18
2022-09-07T11:51:54.283Z,31.86
2022-09-07T11:52:53.847Z,31.21
2022-09-07T11:53:53.434Z,31.21
2022-09-07T11:54:53.556Z,31.21
2022-09-07T11:55:53.600Z,30.89
2022-09-07T11:56:53.696Z,31.21
2022-09-07T11:57:55.738Z,30.89
2022-09-07T11:58:53.865Z,30.89
2022-09-07T11:59:53.977Z,31.21
2022-09-07T12:00:54.047Z,29.92
2022-09-07T12:01:54.087Z,29.92
2022-09-07T12:03:01.564Z,29.60
2022-09-07T12:03:54.372Z,29.28
2022-09-07T12:04:56.520Z,29.28
2022-09-07T12:05:54.412Z,29.28
2022-09-07T12:06:54.486Z,29.60
2022-09-07T12:07:54.548Z,28.63
2022-09-07T12:08:54.663Z,28.31
2022-09-07T12:09:54.734Z,27.99
2022-09-07T12:10:54.968Z,28.31
2022-09-07T12:11:54.886Z,28.63
2022-09-07T12:12:54.950Z,27.99
2022-09-07T12:13:55.031Z,27.99
2022-09-07T12:14:55.122Z,28.31
2022-09-07T12:15:55.245Z,27.99
2022-09-07T12:16:55.293Z,27.67
2022-09-07T12:17:55.366Z,27.67
2022-09-07T12:18:55.477Z,27.34
2022-09-07T12:19:55.557Z,27.99
2022-09-07T12:20:55.691Z,27.67
2022-09-07T12:21:55.704Z,28.31
2022-09-07T12:22:55.822Z,27.02
2022-09-07T12:23:55.879Z,27.02
2022-09-07T12:24:55.958Z,27.34
2022-09-07T12:25:56.077Z,27.67
2022-09-07T12:26:56.215Z,27.99
2022-09-07T12:27:56.213Z,26.70
2022-09-07T12:28:56.296Z,26.70
2022-09-07T12:29:56.367Z,27.02
2022-09-07T12:30:56.529Z,27.34
2022-09-07T12:31:59.755Z,28.31
2022-09-07T12:32:58.357Z,27.02
2022-09-07T12:33:56.707Z,27.67
2022-09-07T12:34:56.786Z,27.67
2022-09-07T12:35:56.912Z,27.02
2022-09-07T12:36:57.040Z,27.02
2022-09-07T12:37:57.032Z,26.70
2022-09-07T12:38:57.095Z,27.34
2022-09-07T12:39:57.218Z,27.02
2022-09-07T12:40:57.259Z,26.05
2022-09-07T12:42:57.404Z,26.38
2022-09-07T12:43:57.492Z,26.38
2022-09-07T12:44:57.570Z,27.02
2022-09-07T12:45:57.673Z,26.70
2022-09-07T12:46:57.722Z,29.28
2022-09-07T12:47:57.789Z,26.70
2022-09-07T12:48:57.879Z,26.70
2022-09-07T12:49:57.958Z,26.38
2022-09-07T12:50:58.038Z,26.70
2022-09-07T12:52:00.246Z,26.70
2022-09-07T12:52:58.227Z,27.67
2022-09-07T12:53:58.277Z,27.02
2022-09-07T12:55:23.641Z,27.34
2022-09-07T12:57:58.607Z,26.05
2022-09-07T12:58:58.688Z,26.38
2022-09-07T12:59:58.825Z,26.05
2022-09-07T13:00:58.900Z,25.73
2022-09-07T13:01:59.024Z,25.73
2022-09-07T13:02:59.037Z,26.70
2022-09-07T13:03:59.191Z,26.70
2022-09-07T13:04:59.175Z,25.73
2022-09-07T13:05:59.235Z,26.70
2022-09-07T13:07:02.806Z,25.09
2022-09-07T13:08:08.345Z,26.05
2022-09-07T13:08:59.467Z,25.73
2022-09-07T13:09:59.555Z,26.05
2022-09-07T13:10:59.609Z,27.99
2022-09-07T13:11:59.729Z,26.70
2022-09-07T13:12:59.783Z,26.38
2022-09-07T13:14:05.087Z,27.02
2022-09-07T13:14:59.971Z,26.70
2022-09-07T13:16:00.049Z,26.05
2022-09-07T13:18:00.204Z,26.70
2022-09-07T13:19:01.895Z,27.02
2022-09-07T13:20:01.186Z,26.38
2022-09-07T13:21:00.417Z,26.38
2022-09-07T13:22:00.497Z,26.38
2022-09-07T13:23:00.570Z,26.70
2022-09-07T13:24:45.583Z,26.38
2022-09-07T13:25:00.801Z,26.70
2022-09-07T13:26:00.811Z,26.38
2022-09-07T13:27:00.883Z,26.05
2022-09-07T13:28:00.998Z,26.05
2022-09-07T13:29:01.037Z,26.05
2022-09-07T13:30:01.130Z,26.38
2022-09-07T13:31:01.289Z,26.70